Time;durP1;ratioP1;P1;durP2;ratioP2;P2;SDS_P1;SDS_P2;PMS_P1;PMS_P2;Temp;Humidity;BMP_temperature;BMP_pressure;BME280_temperature;BME280_humidity;BME280_pressure;Samples;Min_cycle;Max_cycle;Signal;HPM_P1;HPM_P2
2023/07/13 00:53:38;;;;;;;2.03;1.02;;;;;;;26.48;60.62;99303.53;4320400;33;20092;-95
2023/07/13 00:56:06;;;;;;;2.45;0.90;;;;;;;26.27;60.60;99305.78;4307375;33;20466;-96
2023/07/13 00:58:32;;;;;;;2.33;1.02;;;;;;;26.13;60.60;99304.53;4295065;33;20152;-96
2023/07/13 01:01:02;;;;;;;2.10;0.93;;;;;;;26.14;60.59;99311.53;4295307;33;20116;-96
2023/07/13 01:03:34;;;;;;;1.58;0.98;;;;;;;25.85;60.57;99311.88;4294803;33;20107;-96
2023/07/13 01:06:07;;;;;;;2.78;1.20;;;;;;;25.95;60.58;99309.09;4297236;33;20100;-96
2023/07/13 01:08:48;;;;;;;2.10;1.00;;;;;;;26.13;60.59;99299.19;4310295;33;20671;-94
2023/07/13 01:11:34;;;;;;;2.87;0.98;;;;;;;26.06;60.59;99292.84;4307545;33;20176;-95
2023/07/13 01:14:03;;;;;;;3.20;1.23;;;;;;;25.88;60.58;99292.91;4293737;33;20335;-95
2023/07/13 01:17:02;;;;;;;3.33;1.02;;;;;;;25.82;60.58;99285.53;4269535;33;20749;-95
2023/07/13 01:19:47;;;;;;;6.22;2.00;;;;;;;25.98;60.59;99304.28;4286785;33;20110;-95
2023/07/13 01:25:43;;;;;;;2.87;1.10;;;;;;;25.85;60.57;99301.22;4335385;27;20118;-94
2023/07/13 01:28:37;;;;;;;4.00;0.93;;;;;;;25.59;60.57;99301.19;4299630;33;20087;-96
2023/07/13 01:31:13;;;;;;;2.22;1.33;;;;;;;25.55;60.57;99304.28;4313480;33;20118;-95
2023/07/13 01:34:07;;;;;;;1.17;0.90;;;;;;;25.51;60.56;99297.59;4299696;33;20088;-95
2023/07/13 01:36:45;;;;;;;2.35;1.10;;;;;;;25.48;60.56;99293.41;4310695;33;20104;-95
2023/07/13 01:39:58;;;;;;;2.53;1.10;;;;;;;25.31;60.56;99286.28;4299989;33;20155;-96
2023/07/13 01:42:33;;;;;;;2.15;1.02;;;;;;;25.36;60.56;99284.00;4296482;33;20095;-96
2023/07/13 02:03:02;;;;;;;3.10;1.80;;;;;;;25.03;60.54;99273.06;4318988;33;20158;-94
2023/07/13 02:20:10;;;;;;;2.05;1.15;;;;;;;24.74;60.52;99289.22;4176699;34;20092;-94
2023/07/13 05:01:52;;;;;;;6.87;3.87;;;;;;;22.92;60.43;99576.22;4319292;33;20072;-94
2023/07/13 05:04:18;;;;;;;7.55;3.45;;;;;;;22.90;60.42;99599.38;4318600;33;20112;-94
2023/07/13 05:06:45;;;;;;;8.27;4.00;;;;;;;22.79;60.41;99628.63;4309110;33;20108;-91
2023/07/13 05:09:12;;;;;;;7.93;3.12;;;;;;;22.53;60.41;99643.25;4294172;33;20099;-92
2023/07/13 05:11:38;;;;;;;5.47;3.60;;;;;;;22.11;60.38;99655.56;4294141;33;20461;-91
2023/07/13 05:14:03;;;;;;;8.55;3.50;;;;;;;21.95;60.38;99685.06;4294951;33;20096;-92
2023/07/13 05:16:28;;;;;;;5.32;3.42;;;;;;;21.68;60.36;99681.00;4306511;33;20164;-92
2023/07/13 05:18:54;;;;;;;7.43;3.55;;;;;;;21.89;60.38;99693.53;4306761;33;20125;-91
2023/07/13 05:21:19;;;;;;;7.25;3.35;;;;;;;21.96;60.38;99682.31;4306441;33;20122;-91
2023/07/13 05:23:51;;;;;;;6.65;3.28;;;;;;;21.93;60.37;99684.34;4295097;33;20122;-92
2023/07/13 05:26:16;;;;;;;9.07;2.60;;;;;;;21.56;60.36;99692.59;4306584;33;20104;-92
2023/07/13 05:28:49;;;;;;;5.20;2.40;;;;;;;21.42;60.35;99682.22;4294736;33;20351;-92
2023/07/13 05:31:17;;;;;;;5.97;2.00;;;;;;;21.38;60.35;99699.31;4294757;33;20135;-93
2023/07/13 05:33:45;;;;;;;4.10;2.25;;;;;;;21.24;60.33;99688.94;4295076;33;20474;-92
2023/07/13 05:36:13;;;;;;;4.75;2.00;;;;;;;21.27;60.34;99667.50;4283858;33;20104;-95
2023/07/13 05:38:40;;;;;;;3.03;2.00;;;;;;;21.23;60.33;99658.09;4283480;33;20115;-93
2023/07/13 05:41:20;;;;;;;6.43;1.85;;;;;;;20.97;60.32;99646.88;4282410;33;20116;-93
2023/07/13 05:43:46;;;;;;;4.22;2.03;;;;;;;20.87;60.32;99640.59;4297597;33;20096;-92
2023/07/13 05:46:22;;;;;;;4.65;2.20;;;;;;;20.88;60.32;99629.91;4282861;33;20152;-93
2023/07/13 05:49:11;;;;;;;6.62;2.10;;;;;;;20.92;60.31;99623.41;4285040;33;20138;-93
2023/07/13 05:51:57;;;;;;;4.57;2.45;;;;;;;20.84;60.31;99613.44;4307307;33;20162;-94
2023/07/13 05:54:23;;;;;;;3.50;1.80;;;;;;;20.89;60.31;99606.94;4297124;33;20100;-93
2023/07/13 05:56:51;;;;;;;4.85;2.72;;;;;;;20.66;60.31;99596.31;4283627;33;20127;-92
2023/07/13 05:59:47;;;;;;;;;;;;;;;;;;;;;
2023/07/13 06:02:21;;;;;;;8.63;2.33;;;;;;;20.61;60.30;99594.97;4304587;33;35842;-93
2023/07/13 06:05:49;;;;;;;3.15;1.92;;;;;;;20.61;60.30;99557.94;4284056;33;20450;-94
2023/07/13 06:08:10;;;;;;;7.40;2.20;;;;;;;20.52;60.29;99491.56;4289780;33;20828;-94
2023/07/13 06:10:36;;;;;;;3.53;1.77;;;;;;;20.62;60.30;99329.56;4253451;33;20125;-92
2023/07/13 06:13:01;;;;;;;4.75;1.60;;;;;;;20.47;60.30;99233.78;4264758;33;20112;-91
2023/07/13 06:15:27;;;;;;;2.22;1.50;;;;;;;20.46;60.29;99261.19;4288560;33;20116;-90
2023/07/13 06:17:52;;;;;;;2.60;1.83;;;;;;;20.50;60.29;99258.16;4253869;33;20125;-91
2023/07/13 06:20:18;;;;;;;2.78;1.77;;;;;;;20.55;60.29;99278.94;4273788;33;20081;-92
2023/07/13 06:22:45;;;;;;;2.30;1.80;;;;;;;20.51;60.29;99269.59;4281025;33;20124;-91
2023/07/13 06:25:10;;;;;;;2.30;1.30;;;;;;;20.62;60.30;99234.34;4283024;33;20265;-91
2023/07/13 06:27:36;;;;;;;5.20;2.12;;;;;;;20.66;60.30;99215.47;4257013;33;20153;-93
2023/07/13 06:30:01;;;;;;;2.87;1.40;;;;;;;20.74;60.30;99181.28;4268981;33;20108;-91
2023/07/13 06:32:27;;;;;;;2.92;1.52;;;;;;;20.87;60.32;99206.72;4257152;33;20147;-94
2023/07/13 06:35:04;;;;;;;1.52;1.10;;;;;;;20.97;60.32;99202.34;4257895;33;20148;-93
2023/07/13 06:37:35;;;;;;;4.12;1.50;;;;;;;21.05;60.32;99199.88;4285529;33;20135;-94
2023/07/13 06:40:30;;;;;;;2.15;1.10;;;;;;;21.09;60.32;99207.44;4299527;33;20096;-95
2023/07/13 06:43:29;;;;;;;2.17;1.55;;;;;;;21.20;60.33;99197.75;4311488;33;20114;-94
2023/07/13 06:46:29;;;;;;;5.93;1.40;;;;;;;21.27;60.33;99194.47;4308273;33;20152;-93
2023/07/13 06:50:09;;;;;;;4.95;1.90;;;;;;;21.46;60.34;99191.13;4315067;33;20118;-95
2023/07/13 06:53:17;;;;;;;5.03;1.40;;;;;;;21.70;60.35;99182.84;4310078;33;20122;-95
2023/07/13 07:06:35;;;;;;;1.95;1.30;;;;;;;23.30;60.44;99260.50;4071813;35;20171;-96
2023/07/13 07:09:16;;;;;;;6.35;1.62;;;;;;;23.85;60.46;99359.84;4084633;34;20130;-94
2023/07/13 07:36:40;;;;;;;;;;;;;;;;;;;;;
2023/07/13 07:49:42;;;;;;;6.03;1.83;;;;;;;24.54;60.49;99476.59;4248606;33;20126;-96
2023/07/13 07:54:43;;;;;;;7.03;3.00;;;;;;;24.82;60.51;99482.78;4263430;33;20177;-96
2023/07/13 07:57:27;;;;;;;;;;;;;;;;;;;;;
2023/07/13 08:04:04;;;;;;;2.78;1.48;;;;;;;25.13;60.52;99491.41;4266295;33;20102;-96
2023/07/13 08:07:35;;;;;;;;;;;;;;;;;;;;;
2023/07/13 08:10:16;;;;;;;1.77;1.30;;;;;;;25.10;60.53;99483.72;4294087;33;34994;-95
2023/07/13 08:13:04;;;;;;;6.35;1.73;;;;;;;25.06;60.52;99471.66;4272754;33;20657;-96
2023/07/13 08:19:24;;;;;;;;;;;;;;;;;;;;;
2023/07/13 08:21:57;;;;;;;3.12;1.60;;;;;;;25.53;60.54;99476.84;4272018;33;20481;-95
2023/07/13 08:24:29;;;;;;;5.32;1.77;;;;;;;25.66;60.56;99479.97;4271463;33;20073;-96
2023/07/13 08:26:55;;;;;;;3.92;1.77;;;;;;;25.72;60.56;99479.41;4283467;33;20112;-95
2023/07/13 08:29:27;;;;;;;2.35;1.58;;;;;;;25.84;60.56;99480.84;4283713;33;20498;-95
2023/07/13 08:32:09;;;;;;;3.78;1.67;;;;;;;25.82;60.56;99477.50;4259491;33;20135;-96
2023/07/13 08:34:46;;;;;;;5.68;1.50;;;;;;;26.06;60.58;99473.38;4280830;33;20069;-95
2023/07/13 08:37:24;;;;;;;2.45;1.45;;;;;;;26.10;60.58;99462.25;4281554;33;20140;-96
2023/07/13 08:39:49;;;;;;;3.92;1.80;;;;;;;26.29;60.59;99470.06;4281232;33;20172;-96
2023/07/13 08:42:26;;;;;;;3.12;1.70;;;;;;;26.50;60.60;99477.72;4270268;33;20455;-96
2023/07/13 08:45:58;;;;;;;4.32;1.92;;;;;;;26.71;60.60;99477.31;4280559;33;20088;-94
2023/07/13 08:48:27;;;;;;;2.90;1.50;;;;;;;26.85;60.61;99481.25;4267855;33;20108;-96
2023/07/13 08:50:58;;;;;;;3.05;2.00;;;;;;;26.93;60.62;99474.09;4280988;33;20109;-96
2023/07/13 08:53:25;;;;;;;1.95;1.42;;;;;;;27.07;60.63;99479.88;4267563;33;20093;-95
2023/07/13 08:55:51;;;;;;;3.62;1.20;;;;;;;27.04;60.63;99475.69;4279203;33;20092;-95
2023/07/13 08:58:17;;;;;;;5.12;1.70;;;;;;;27.28;60.64;99480.28;4267369;33;20131;-95
2023/07/13 09:00:57;;;;;;;2.10;1.50;;;;;;;27.43;60.64;99467.13;4267267;33;20109;-95
2023/07/13 09:03:24;;;;;;;4.25;1.83;;;;;;;27.46;60.65;99459.63;4279936;33;20855;-95
2023/07/13 09:05:55;;;;;;;3.78;2.03;;;;;;;27.44;60.64;99468.78;4267948;33;20213;-93
2023/07/13 09:08:35;;;;;;;6.20;2.22;;;;;;;27.41;60.64;99479.81;4267668;33;20146;-95
2023/07/13 09:11:42;;;;;;;4.10;2.03;;;;;;;27.48;60.64;99487.03;4279474;33;20132;-96
2023/07/13 09:14:41;;;;;;;3.95;1.50;;;;;;;27.62;60.66;99474.00;4281307;33;20143;-93
2023/07/13 09:17:13;;;;;;;4.93;2.50;;;;;;;27.79;60.67;99465.03;4275085;33;20115;-94
2023/07/13 09:19:38;;;;;;;3.45;2.03;;;;;;;28.07;60.68;99477.06;4275992;33;20129;-94
2023/07/13 09:22:04;;;;;;;6.55;1.98;;;;;;;28.05;60.67;99464.88;4275326;33;20946;-91
2023/07/13 09:24:36;;;;;;;3.90;2.20;;;;;;;28.03;60.67;99473.06;4267479;33;20425;-94
2023/07/13 09:27:03;;;;;;;2.95;1.70;;;;;;;28.10;60.68;99473.22;4289636;33;20503;-93
2023/07/13 09:29:32;;;;;;;2.37;1.73;;;;;;;28.24;60.69;99479.75;4266505;33;20105;-95
2023/07/13 09:32:01;;;;;;;6.47;1.83;;;;;;;28.11;60.68;99488.28;4266147;33;20120;-94
2023/07/13 09:34:30;;;;;;;3.42;2.33;;;;;;;28.23;60.68;99491.47;4266124;33;20163;-93
2023/07/13 09:36:56;;;;;;;3.30;1.90;;;;;;;28.36;60.69;99491.81;4266378;33;20105;-94
2023/07/13 09:39:45;;;;;;;3.85;2.08;;;;;;;28.40;60.70;99491.31;4265861;33;20109;-93
2023/07/13 09:42:11;;;;;;;6.30;1.77;;;;;;;28.46;60.69;99483.59;4279586;33;20073;-93
2023/07/13 09:44:38;;;;;;;3.40;1.70;;;;;;;28.39;60.70;99492.31;4289348;33;20161;-91
2023/07/13 09:47:04;;;;;;;3.05;1.58;;;;;;;28.75;60.71;99489.22;4265686;33;20437;-94
2023/07/13 09:49:33;;;;;;;3.50;1.67;;;;;;;28.97;60.72;99499.22;4265917;33;20152;-94
2023/07/13 09:52:03;;;;;;;4.82;1.90;;;;;;;28.53;60.70;99495.31;4266036;33;20120;-90
2023/07/13 09:54:28;;;;;;;3.30;1.80;;;;;;;28.55;60.71;99490.63;4265267;33;20119;-93
2023/07/13 09:56:57;;;;;;;3.12;1.62;;;;;;;28.97;60.73;99493.03;4265086;33;20133;-96
2023/07/13 09:59:32;;;;;;;1.87;1.70;;;;;;;29.14;60.74;99488.47;4265501;33;20168;-90
2023/07/13 10:01:58;;;;;;;2.33;1.48;;;;;;;29.02;60.72;99496.03;4265349;33;20221;-92
2023/07/13 10:04:33;;;;;;;6.20;1.50;;;;;;;29.22;60.74;99496.44;4265331;33;20104;-91
2023/07/13 10:07:06;;;;;;;2.97;1.80;;;;;;;29.08;60.73;99500.69;4265458;33;20092;-92
2023/07/13 10:09:32;;;;;;;2.22;1.60;;;;;;;29.26;60.73;99492.41;4265159;33;20105;-93
2023/07/13 10:11:57;;;;;;;3.03;1.73;;;;;;;29.57;60.75;99495.09;4288817;33;20157;-91
2023/07/13 10:14:25;;;;;;;3.40;1.67;;;;;;;29.79;60.76;99493.44;4276926;33;20092;-89
2023/07/13 10:16:53;;;;;;;2.42;1.62;;;;;;;29.83;60.78;99486.75;4277104;33;20072;-89
2023/07/13 10:19:22;;;;;;;2.70;1.85;;;;;;;29.73;60.76;99494.19;4277014;33;20101;-89
2023/07/13 10:22:01;;;;;;;2.50;1.40;;;;;;;29.89;60.77;99488.69;4265494;33;20113;-88
2023/07/13 10:24:32;;;;;;;3.27;1.67;;;;;;;30.22;60.80;99495.50;4266744;33;20085;-89
2023/07/13 10:27:20;;;;;;;2.53;1.70;;;;;;;30.21;60.79;99498.34;4265546;33;20433;-89
2023/07/13 10:29:52;;;;;;;3.80;1.85;;;;;;;30.33;60.80;99493.41;4276945;33;20176;-89
2023/07/13 10:32:17;;;;;;;2.28;1.40;;;;;;;30.24;60.79;99506.88;4265370;33;20440;-89
2023/07/13 10:34:45;;;;;;;3.58;1.95;;;;;;;30.22;60.79;99497.34;4264372;33;26946;-89
2023/07/13 10:37:24;;;;;;;2.50;1.77;;;;;;;30.19;60.79;99503.91;4276984;33;20116;-90
2023/07/13 10:39:50;;;;;;;;;;;;;;;30.21;60.80;99493.81;4265975;33;20096;-89
2023/07/13 10:42:26;;;;;;;2.67;1.80;;;;;;;30.35;60.80;99500.25;4277290;33;20002;-89
2023/07/13 10:44:51;;;;;;;3.53;1.58;;;;;;;30.45;60.79;99490.06;4265984;33;20084;-90
2023/07/13 10:47:17;;;;;;;2.50;1.48;;;;;;;30.59;60.81;99487.59;4277793;33;20127;-89
2023/07/13 10:49:43;;;;;;;3.75;1.55;;;;;;;30.69;60.82;99490.87;4274465;33;20085;-89
2023/07/13 10:52:37;;;;;;;2.08;1.50;;;;;;;30.61;60.82;99494.47;4268673;33;33051;-90
2023/07/13 10:55:03;;;;;;;1.83;1.50;;;;;;;30.84;60.82;99502.47;4262288;33;20104;-89
2023/07/13 10:57:28;;;;;;;3.47;1.35;;;;;;;30.71;60.82;99494.19;4275204;33;20328;-90
2023/07/13 11:00:04;;;;;;;2.83;1.52;;;;;;;30.76;60.82;99486.44;4249950;33;20202;-89
2023/07/13 11:02:30;;;;;;;2.90;1.62;;;;;;;30.57;60.81;99484.25;4275084;33;20104;-88
2023/07/13 11:04:57;;;;;;;3.03;1.50;;;;;;;30.58;60.81;99484.09;4249746;33;20157;-89
2023/07/13 11:07:29;;;;;;;3.75;2.00;;;;;;;30.96;60.83;99486.69;4274121;33;20084;-90
2023/07/13 11:09:57;;;;;;;1.95;1.55;;;;;;;31.24;60.84;99485.03;4276933;33;20101;-89
2023/07/13 11:12:22;;;;;;;3.20;2.10;;;;;;;31.80;60.88;99473.66;4275698;33;20172;-89
2023/07/13 11:14:54;;;;;;;4.75;1.73;;;;;;;32.11;60.89;99476.00;4263762;33;20498;-89
2023/07/13 11:17:37;;;;;;;2.17;1.92;;;;;;;32.00;60.89;99488.97;4276985;33;20165;-89
2023/07/13 11:20:12;;;;;;;2.97;2.10;;;;;;;31.97;60.88;99492.06;4276833;33;20101;-89
2023/07/13 11:22:50;;;;;;;2.97;1.77;;;;;;;31.83;60.88;99481.34;4276886;33;20167;-88
2023/07/13 11:25:33;;;;;;;2.67;1.80;;;;;;;31.55;60.86;99479.38;4276651;33;20159;-90
2023/07/13 11:28:23;;;;;;;8.30;2.17;;;;;;;31.67;60.87;99469.78;4240482;33;20101;-89
2023/07/13 11:30:59;;;;;;;2.62;2.28;;;;;;;31.41;60.86;99480.25;4264077;33;20117;-89
2023/07/13 11:33:39;;;;;;;2.83;2.00;;;;;;;31.27;60.85;99483.81;4264784;33;20471;-89
2023/07/13 11:36:06;;;;;;;3.92;1.90;;;;;;;30.92;60.83;99474.66;4276732;33;20097;-89
2023/07/13 11:38:37;;;;;;;2.10;1.87;;;;;;;30.84;60.82;99479.09;4264107;33;20103;-89
2023/07/13 11:41:05;;;;;;;2.03;1.80;;;;;;;30.96;60.84;99481.31;4277250;33;20178;-89
2023/07/13 11:43:30;;;;;;;2.87;1.52;;;;;;;31.11;60.85;99482.13;4252188;33;20131;-90
2023/07/13 11:45:56;;;;;;;4.25;1.80;;;;;;;31.32;60.86;99476.84;4264231;33;20093;-89
2023/07/13 11:48:25;;;;;;;5.28;2.03;;;;;;;31.38;60.85;99484.16;4251250;33;31552;-88
2023/07/13 11:51:03;;;;;;;3.33;1.73;;;;;;;31.35;60.86;99492.59;4264148;33;20100;-89
2023/07/13 11:53:29;;;;;;;3.78;2.00;;;;;;;31.51;60.87;99490.72;4256335;33;20152;-89
2023/07/13 11:55:55;;;;;;;2.22;1.92;;;;;;;31.71;60.88;99483.69;4263796;33;20108;-89
2023/07/13 11:58:23;;;;;;;2.90;1.80;;;;;;;31.98;60.89;99472.19;4275813;33;20103;-89
2023/07/13 12:00:49;;;;;;;2.08;1.77;;;;;;;32.18;60.89;99472.34;4275612;33;20109;-89
2023/07/13 12:03:24;;;;;;;2.12;1.60;;;;;;;32.08;60.89;99471.00;4275721;33;20129;-91
2023/07/13 12:06:32;;;;;;;3.37;1.60;;;;;;;31.72;60.88;99470.09;4263825;33;20741;-89
2023/07/13 12:09:03;;;;;;;2.65;1.83;;;;;;;31.77;60.88;99465.97;4264112;33;20089;-92
2023/07/13 12:11:28;;;;;;;4.32;2.58;;;;;;;31.62;60.87;99471.38;4264148;33;20109;-92
2023/07/13 12:13:54;;;;;;;2.67;2.08;;;;;;;31.55;60.86;99459.72;4276234;33;20097;-91
2023/07/13 12:16:32;;;;;;;3.92;2.03;;;;;;;31.44;60.86;99472.63;4288911;33;20113;-90
2023/07/13 12:18:58;;;;;;;3.25;1.90;;;;;;;31.46;60.86;99484.03;4279085;33;20224;-91
2023/07/13 12:21:31;;;;;;;4.07;2.08;;;;;;;31.44;60.87;99471.78;4287228;33;20135;-90
2023/07/13 12:23:57;;;;;;;5.75;2.60;;;;;;;31.36;60.86;99475.44;4264705;33;20117;-90
2023/07/13 12:26:22;;;;;;;3.97;1.98;;;;;;;31.31;60.85;99467.13;4275121;33;20515;-91
2023/07/13 12:28:52;;;;;;;2.28;2.08;;;;;;;31.22;60.85;99457.47;4267167;33;20085;-91
2023/07/13 12:31:32;;;;;;;4.70;2.40;;;;;;;31.28;60.85;99453.22;4263568;33;20100;-90
2023/07/13 12:33:58;;;;;;;;;;;;;;;31.38;60.86;99453.72;4263733;33;20104;-91
2023/07/13 12:36:23;;;;;;;3.72;2.28;;;;;;;31.43;60.86;99454.00;4263410;33;19976;-92
2023/07/13 12:38:49;;;;;;;2.92;2.30;;;;;;;31.13;60.84;99448.66;4266894;33;20127;-92
2023/07/13 12:41:15;;;;;;;3.20;2.28;;;;;;;30.85;60.84;99467.34;4251571;33;20129;-91
2023/07/13 12:43:40;;;;;;;3.53;2.72;;;;;;;31.00;60.83;99464.66;4275367;33;20165;-90
2023/07/13 12:46:17;;;;;;;3.70;2.17;;;;;;;31.30;60.85;99464.62;4263344;33;20141;-90
2023/07/13 12:48:42;;;;;;;4.75;2.08;;;;;;;31.25;60.86;99475.94;4275332;33;20730;-91
2023/07/13 12:51:12;;;;;;;2.78;1.90;;;;;;;31.10;60.85;99469.72;4263248;33;20162;-91
2023/07/13 12:53:42;;;;;;;4.05;2.30;;;;;;;31.16;60.84;99463.59;4260175;33;20096;-91
2023/07/13 12:56:12;;;;;;;2.37;1.98;;;;;;;31.24;60.86;99474.28;4265768;33;20100;-90
2023/07/13 12:58:38;;;;;;;2.40;1.87;;;;;;;31.31;60.87;99459.06;4277739;33;20092;-90
2023/07/13 13:01:05;;;;;;;2.33;1.80;;;;;;;31.48;60.87;99453.44;4265745;33;20127;-90
2023/07/13 13:03:37;;;;;;;2.90;1.90;;;;;;;31.58;60.86;99465.53;4265750;33;20105;-90
2023/07/13 13:06:04;;;;;;;2.28;1.80;;;;;;;31.77;60.87;99464.12;4265673;33;20089;-91
2023/07/13 13:08:31;;;;;;;2.15;1.90;;;;;;;32.05;60.90;99451.53;4265676;33;20136;-90
2023/07/13 13:10:57;;;;;;;2.42;1.92;;;;;;;31.97;60.89;99448.97;4265607;33;20142;-89
2023/07/13 13:13:22;;;;;;;3.50;2.12;;;;;;;31.87;60.88;99443.06;4277598;33;20447;-90
2023/07/13 13:15:48;;;;;;;3.17;2.17;;;;;;;31.71;60.88;99437.94;4290959;33;20145;-93
2023/07/13 13:18:23;;;;;;;3.83;2.17;;;;;;;31.82;60.89;99431.22;4265463;33;20180;-93
2023/07/13 13:20:52;;;;;;;2.78;2.20;;;;;;;31.79;60.88;99420.88;4265572;33;20177;-87
2023/07/13 13:23:19;;;;;;;2.50;2.30;;;;;;;31.96;60.89;99431.16;4290746;33;20119;-93
2023/07/13 13:25:49;;;;;;;2.87;1.92;;;;;;;32.16;60.90;99423.22;4265876;33;20115;-89
2023/07/13 13:28:21;;;;;;;3.25;1.98;;;;;;;32.23;60.90;99428.69;4291638;33;20080;-89
2023/07/13 13:30:48;;;;;;;3.78;2.28;;;;;;;32.62;60.92;99433.50;4264618;33;20139;-90
2023/07/13 13:33:15;;;;;;;2.85;2.10;;;;;;;32.53;60.92;99432.00;4265600;33;20379;-90
2023/07/13 13:35:41;;;;;;;3.45;2.05;;;;;;;32.46;60.92;99418.50;4265907;33;20093;-89
2023/07/13 13:38:16;;;;;;;3.15;1.90;;;;;;;32.36;60.91;99420.69;4265682;33;20767;-91
2023/07/13 13:40:42;;;;;;;1.90;1.65;;;;;;;32.48;60.91;99413.75;4266515;33;20475;-91
2023/07/13 13:43:16;;;;;;;4.43;1.83;;;;;;;32.48;60.91;99427.22;4266373;33;20869;-92
2023/07/13 13:45:42;;;;;;;4.45;1.92;;;;;;;32.40;60.91;99434.59;4266776;33;20092;-91
2023/07/13 13:48:13;;;;;;;3.37;1.80;;;;;;;32.27;60.90;99422.72;4267611;33;20123;-91
2023/07/13 13:50:39;;;;;;;2.28;1.60;;;;;;;32.34;60.91;99415.50;4275048;33;20093;-92
2023/07/13 13:53:04;;;;;;;2.60;1.67;;;;;;;31.99;60.89;99414.63;4297055;33;20407;-91
2023/07/13 13:55:30;;;;;;;1.92;1.73;;;;;;;31.80;60.89;99409.06;4272490;33;27571;-91
2023/07/13 13:57:56;;;;;;;2.55;1.60;;;;;;;31.99;60.90;99430.78;4265300;33;20404;-91
2023/07/13 14:00:21;;;;;;;3.45;1.77;;;;;;;32.14;60.90;99427.13;4290193;33;20151;-90
2023/07/13 14:02:47;;;;;;;2.70;2.10;;;;;;;31.99;60.89;99430.78;4276973;33;20105;-90
2023/07/13 14:05:14;;;;;;;5.12;2.15;;;;;;;31.84;60.88;99421.94;4265039;33;20482;-90
2023/07/13 14:07:40;;;;;;;3.58;2.12;;;;;;;31.70;60.88;99429.00;4265112;33;20100;-90
2023/07/13 14:10:11;;;;;;;4.35;1.80;;;;;;;31.68;60.88;99430.22;4265004;33;20176;-91
2023/07/13 14:12:36;;;;;;;3.62;2.20;;;;;;;31.76;60.88;99435.53;4265136;33;20104;-90
2023/07/13 14:15:02;;;;;;;3.83;1.87;;;;;;;31.72;60.88;99429.72;4264964;33;20084;-91
2023/07/13 14:17:27;;;;;;;2.08;1.77;;;;;;;31.83;60.89;99436.41;4276657;33;20127;-91
2023/07/13 14:19:59;;;;;;;2.50;1.90;;;;;;;31.74;60.88;99432.22;4264539;33;20100;-90
2023/07/13 14:22:25;;;;;;;2.00;1.48;;;;;;;31.43;60.87;99445.91;4277370;33;20097;-91
2023/07/13 14:24:54;;;;;;;3.12;1.65;;;;;;;31.44;60.87;99448.41;4276779;33;20116;-90
2023/07/13 14:27:20;;;;;;;2.47;1.95;;;;;;;31.63;60.87;99446.97;4265110;33;20452;-91
2023/07/13 14:29:46;;;;;;;3.35;1.80;;;;;;;31.58;60.88;99452.09;4264682;33;20108;-91
2023/07/13 14:32:12;;;;;;;2.10;1.87;;;;;;;31.51;60.87;99456.59;4265052;33;20176;-92
2023/07/13 14:34:38;;;;;;;2.83;1.95;;;;;;;31.54;60.87;99460.75;4264810;33;20104;-91
2023/07/13 14:37:04;;;;;;;1.90;1.75;;;;;;;31.31;60.87;99458.22;4264906;33;20493;-90
2023/07/13 14:39:29;;;;;;;2.22;1.80;;;;;;;31.34;60.86;99463.22;4276508;33;20181;-91
2023/07/13 14:41:55;;;;;;;3.00;2.28;;;;;;;31.38;60.86;99462.63;4289013;33;20100;-91
2023/07/13 14:44:24;;;;;;;3.17;1.95;;;;;;;31.13;60.85;99463.97;4280692;33;20088;-89
2023/07/13 14:46:50;;;;;;;3.55;2.10;;;;;;;31.33;60.86;99478.50;4267819;33;20120;-90
2023/07/13 14:49:32;;;;;;;2.45;1.67;;;;;;;31.30;60.86;99478.91;4266172;33;20478;-88
2023/07/13 14:52:03;;;;;;;3.62;2.08;;;;;;;31.39;60.86;99479.59;4265813;33;20180;-90
2023/07/13 14:54:29;;;;;;;2.58;1.92;;;;;;;31.51;60.87;99478.09;4266717;33;20093;-92
2023/07/13 14:56:54;;;;;;;2.50;1.90;;;;;;;31.61;60.87;99480.47;4266010;33;20093;-91
2023/07/13 14:59:20;;;;;;;4.35;1.87;;;;;;;31.69;60.88;99470.41;4289784;33;20169;-90
2023/07/13 15:01:47;;;;;;;4.25;2.12;;;;;;;31.93;60.89;99463.84;4266085;33;20201;-93
2023/07/13 15:04:15;;;;;;;2.05;1.85;;;;;;;31.93;60.89;99458.44;4278393;33;20113;-92
2023/07/13 15:07:02;;;;;;;2.58;1.90;;;;;;;32.00;60.89;99478.22;4266762;33;20115;-93
2023/07/13 15:09:28;;;;;;;2.55;2.30;;;;;;;31.87;60.88;99491.53;4267515;33;20160;-91
2023/07/13 15:11:57;;;;;;;3.87;2.10;;;;;;;31.75;60.88;99493.09;4267462;33;20131;-92
2023/07/13 15:14:24;;;;;;;4.25;1.80;;;;;;;31.59;60.87;99496.81;4271208;33;20061;-91
2023/07/13 15:16:50;;;;;;;2.62;1.73;;;;;;;31.51;60.87;99490.72;4270611;33;20481;-90
2023/07/13 15:19:19;;;;;;;1.90;1.60;;;;;;;31.57;60.88;99489.94;4281438;33;20115;-93
2023/07/13 15:21:47;;;;;;;2.20;2.00;;;;;;;31.39;60.86;99479.59;4274804;33;20136;-91
2023/07/13 15:24:13;;;;;;;2.97;2.00;;;;;;;31.45;60.86;99471.59;4273677;33;20135;-91
2023/07/13 15:26:38;;;;;;;3.12;1.98;;;;;;;31.04;60.85;99476.69;4279054;33;20427;-90
2023/07/13 15:29:04;;;;;;;3.08;2.53;;;;;;;31.21;60.85;99466.56;4270028;33;20135;-93
2023/07/13 15:31:31;;;;;;;2.10;1.75;;;;;;;31.40;60.87;99463.28;4266125;33;20112;-90
2023/07/13 15:33:57;;;;;;;3.15;2.00;;;;;;;31.08;60.85;99471.78;4266235;33;20525;-91
2023/07/13 15:36:22;;;;;;;4.45;2.90;;;;;;;31.03;60.85;99482.25;4265976;33;20127;-91
2023/07/13 15:38:50;;;;;;;2.33;2.00;;;;;;;30.99;60.84;99459.44;4275958;33;20132;-91
2023/07/13 15:41:22;;;;;;;3.03;2.12;;;;;;;30.99;60.84;99460.25;4266299;33;20544;-90
2023/07/13 15:43:55;;;;;;;4.35;2.12;;;;;;;31.09;60.85;99447.38;4277767;33;20122;-91
2023/07/13 15:46:22;;;;;;;3.40;1.95;;;;;;;31.22;60.85;99438.66;4291037;33;20143;-91
2023/07/13 15:48:58;;;;;;;3.05;2.12;;;;;;;31.27;60.86;99451.56;4266109;33;20155;-90
2023/07/13 15:51:36;;;;;;;3.05;1.80;;;;;;;30.98;60.84;99447.84;4289834;33;20134;-90
2023/07/13 15:54:06;;;;;;;2.80;1.90;;;;;;;31.02;60.85;99459.09;4278063;33;20421;-92
2023/07/13 15:56:33;;;;;;;;;;;;;;;30.89;60.84;99465.09;4266829;33;20097;-91
2023/07/13 15:58:58;;;;;;;3.62;1.80;;;;;;;31.14;60.84;99468.31;4277828;33;20032;-89
2023/07/13 16:01:24;;;;;;;2.00;1.80;;;;;;;31.16;60.84;99471.66;4265917;33;20152;-89
2023/07/13 16:03:51;;;;;;;2.60;1.80;;;;;;;30.94;60.85;99486.03;4277638;33;20172;-90
2023/07/13 16:06:22;;;;;;;2.47;1.92;;;;;;;31.07;60.84;99499.69;4291191;33;20081;-89
2023/07/13 16:08:50;;;;;;;2.42;1.85;;;;;;;31.08;60.85;99501.34;4277651;33;20753;-90
2023/07/13 16:11:26;;;;;;;3.75;2.10;;;;;;;31.22;60.85;99505.03;4289701;33;20112;-90
2023/07/13 16:13:54;;;;;;;3.17;2.10;;;;;;;31.08;60.85;99506.72;4265930;33;20205;-91
2023/07/13 16:16:25;;;;;;;3.17;1.95;;;;;;;31.05;60.85;99502.56;4266670;33;20100;-90
2023/07/13 16:18:55;;;;;;;2.70;1.90;;;;;;;31.00;60.84;99504.13;4277606;33;20134;-89
2023/07/13 16:21:20;;;;;;;2.42;1.95;;;;;;;30.85;60.84;99504.13;4278542;33;20121;-90
2023/07/13 16:23:46;;;;;;;3.28;1.80;;;;;;;30.76;60.82;99499.88;4266438;33;20138;-89
2023/07/13 16:26:28;;;;;;;2.75;1.98;;;;;;;30.72;60.83;99495.88;4291452;33;20163;-89
2023/07/13 16:29:00;;;;;;;4.18;1.90;;;;;;;30.63;60.83;99497.81;4278194;33;20132;-89
2023/07/13 16:31:32;;;;;;;2.17;1.80;;;;;;;30.75;60.83;99495.50;4289723;33;20132;-90
2023/07/13 16:33:59;;;;;;;3.40;2.00;;;;;;;30.76;60.83;99487.28;4291014;33;20123;-89
2023/07/13 16:36:26;;;;;;;3.75;2.15;;;;;;;30.80;60.84;99491.25;4277894;33;20156;-89
2023/07/13 16:38:52;;;;;;;3.70;1.80;;;;;;;30.70;60.83;99488.00;4278041;33;20490;-89
2023/07/13 16:41:17;;;;;;;3.50;1.83;;;;;;;30.85;60.84;99479.94;4265882;33;20177;-89
2023/07/13 16:43:45;;;;;;;2.62;2.17;;;;;;;30.84;60.84;99479.09;4266163;33;20161;-88
2023/07/13 16:46:14;;;;;;;2.62;1.90;;;;;;;30.71;60.83;99478.91;4277704;33;20092;-88
2023/07/13 16:48:40;;;;;;;2.15;1.65;;;;;;;30.66;60.83;99475.13;4267144;33;20490;-88
2023/07/13 16:51:06;;;;;;;2.22;1.73;;;;;;;30.75;60.82;99474.84;4278215;33;20096;-87
2023/07/13 16:53:33;;;;;;;3.45;1.90;;;;;;;30.64;60.83;99464.56;4299678;33;20073;-87
2023/07/13 16:55:59;;;;;;;2.87;1.83;;;;;;;30.67;60.83;99456.12;4281350;33;20513;-88
2023/07/13 16:58:25;;;;;;;3.03;1.35;;;;;;;30.62;60.83;99458.53;4264945;33;20108;-88
2023/07/13 17:00:51;;;;;;;3.45;1.85;;;;;;;30.63;60.83;99454.84;4264707;33;20446;-88
2023/07/13 17:03:18;;;;;;;2.97;1.55;;;;;;;30.49;60.81;99443.03;4264567;33;20093;-89
2023/07/13 17:05:45;;;;;;;3.55;1.52;;;;;;;30.36;60.82;99444.69;4289161;33;20120;-87
2023/07/13 17:08:14;;;;;;;2.60;1.70;;;;;;;30.48;60.82;99449.41;4275978;33;20136;-88